createdAt,value
2023-05-11T00:01:29.052Z,50.87
2023-05-11T00:03:57.171Z,51.45
2023-05-11T00:06:25.059Z,51.32
2023-05-11T00:08:53.194Z,50.96
2023-05-11T00:11:23.711Z,51.17
2023-05-11T00:13:51.823Z,50.87
2023-05-11T00:16:19.852Z,51.47
2023-05-11T00:18:49.007Z,50.89
2023-05-11T00:21:16.808Z,51.51
2023-05-11T00:23:44.651Z,51.00
2023-05-11T00:26:12.621Z,51.29
2023-05-11T00:28:42.083Z,51.01
2023-05-11T00:31:09.990Z,50.82
2023-05-11T00:33:37.953Z,50.95
2023-05-11T00:36:06.446Z,50.71
2023-05-11T00:38:34.439Z,50.80
2023-05-11T00:41:02.255Z,51.30
2023-05-11T00:43:30.051Z,50.79
2023-05-11T00:45:59.382Z,50.98
2023-05-11T00:48:27.273Z,51.19
2023-05-11T00:50:55.248Z,51.42
2023-05-11T00:53:23.115Z,50.77
2023-05-11T00:55:51.355Z,50.84
2023-05-11T00:58:19.435Z,51.46
2023-05-11T01:00:47.967Z,50.92
2023-05-11T01:03:18.178Z,50.76
2023-05-11T01:05:53.844Z,50.74
2023-05-11T01:08:29.428Z,51.14
2023-05-11T01:11:03.757Z,51.23
2023-05-11T01:13:35.050Z,50.99
2023-05-11T01:16:09.994Z,51.19
2023-05-11T01:18:44.750Z,51.16
2023-05-11T01:21:18.225Z,50.36
2023-05-11T01:24:18.680Z,50.49
2023-05-11T01:27:04.360Z,50.88
2023-05-11T01:29:47.909Z,50.75
2023-05-11T01:32:21.586Z,50.91
2023-05-11T01:34:54.349Z,50.83
2023-05-11T01:37:24.693Z,50.77
2023-05-11T01:39:56.000Z,50.68
2023-05-11T01:42:29.924Z,51.42
2023-05-11T01:44:59.267Z,51.37
2023-05-11T01:47:31.251Z,51.93
2023-05-11T01:50:02.070Z,51.74
2023-05-11T01:52:33.607Z,51.75
2023-05-11T01:55:04.903Z,51.78
2023-05-11T01:57:33.954Z,51.65
2023-05-11T02:00:02.549Z,52.31
2023-05-11T02:02:42.784Z,52.01
2023-05-11T02:05:12.065Z,52.64
2023-05-11T02:07:44.367Z,52.30
2023-05-11T02:10:14.172Z,52.29
2023-05-11T02:12:45.189Z,52.74
2023-05-11T02:15:14.476Z,52.34
2023-05-11T02:17:44.975Z,52.37
2023-05-11T02:20:14.671Z,52.34
2023-05-11T02:22:44.277Z,53.04
2023-05-11T02:25:13.781Z,52.94
2023-05-11T02:27:41.883Z,52.84
2023-05-11T02:30:11.557Z,52.95
2023-05-11T02:32:48.866Z,53.40
2023-05-11T02:35:21.751Z,53.08
2023-05-11T02:37:51.868Z,52.76
2023-05-11T02:40:24.558Z,52.75
2023-05-11T02:42:58.067Z,53.19
2023-05-11T02:45:31.763Z,53.45
2023-05-11T02:48:06.871Z,53.43
2023-05-11T02:50:39.007Z,53.50
2023-05-11T02:53:11.663Z,53.51
2023-05-11T02:55:40.622Z,53.10
2023-05-11T02:58:09.622Z,52.78
2023-05-11T03:00:40.182Z,52.94
2023-05-11T03:03:09.616Z,53.28
2023-05-11T03:05:37.874Z,53.04
2023-05-11T03:08:06.110Z,53.10
2023-05-11T03:10:35.117Z,52.65
2023-05-11T03:13:04.673Z,53.11
2023-05-11T03:15:34.082Z,52.62
2023-05-11T03:18:04.153Z,52.64
2023-05-11T03:20:36.683Z,52.97
2023-05-11T03:23:06.454Z,52.98
2023-05-11T03:25:34.900Z,53.17
2023-05-11T03:28:04.533Z,52.84
2023-05-11T03:30:35.715Z,53.33
2023-05-11T03:33:03.824Z,53.18
2023-05-11T03:35:35.932Z,53.14
2023-05-11T03:38:06.342Z,53.20
2023-05-11T03:40:35.264Z,52.84
2023-05-11T03:43:04.938Z,53.12
2023-05-11T03:45:34.362Z,52.94
2023-05-11T03:48:06.094Z,52.85
2023-05-11T03:50:35.953Z,52.88
2023-05-11T03:53:05.414Z,52.86
2023-05-11T03:55:33.511Z,53.09
2023-05-11T03:58:04.195Z,53.33
2023-05-11T04:00:32.569Z,52.89
2023-05-11T04:03:05.668Z,53.17
2023-05-11T04:05:35.267Z,53.33
2023-05-11T04:08:06.543Z,53.19
2023-05-11T04:10:34.425Z,53.33
2023-05-11T04:13:02.280Z,53.63
2023-05-11T04:15:30.227Z,53.40
2023-05-11T04:17:58.185Z,53.30
2023-05-11T04:20:26.117Z,53.22
2023-05-11T04:22:55.690Z,53.21
2023-05-11T04:25:24.126Z,53.52
2023-05-11T04:27:52.579Z,53.56
2023-05-11T04:30:21.589Z,53.20
2023-05-11T04:32:49.739Z,53.21
2023-05-11T04:35:18.475Z,53.64
2023-05-11T04:37:46.461Z,53.59
2023-05-11T04:40:16.067Z,53.48
2023-05-11T04:42:45.116Z,53.61
2023-05-11T04:45:17.286Z,53.60
2023-05-11T04:47:45.441Z,53.68
2023-05-11T04:50:14.316Z,53.21
2023-05-11T04:52:42.384Z,53.70
2023-05-11T04:55:11.300Z,53.62
2023-05-11T04:57:40.571Z,53.28
2023-05-11T05:00:09.932Z,53.21
2023-05-11T05:02:37.796Z,53.28
2023-05-11T05:05:06.238Z,53.73
2023-05-11T05:07:34.131Z,53.25
2023-05-11T05:10:03.926Z,53.15
2023-05-11T05:12:32.372Z,53.37
2023-05-11T05:15:01.547Z,53.13
2023-05-11T05:17:29.465Z,53.68
2023-05-11T05:19:57.998Z,53.21
2023-05-11T05:25:18.209Z,53.07
2023-05-11T05:27:46.961Z,53.66
2023-05-11T05:30:20.984Z,53.75
2023-05-11T05:32:49.837Z,53.33
2023-05-11T05:35:17.770Z,53.05
2023-05-11T05:37:45.743Z,53.48
2023-05-11T05:40:13.778Z,53.49
2023-05-11T05:42:46.960Z,53.25
2023-05-11T05:45:20.145Z,53.34
2023-05-11T05:47:49.139Z,53.21
2023-05-11T05:50:17.869Z,53.43
2023-05-11T05:52:46.354Z,53.50
2023-05-11T05:58:06.337Z,53.75
2023-05-11T06:00:36.260Z,54.39
2023-05-11T06:03:07.864Z,54.46
2023-05-11T06:05:37.213Z,54.17
2023-05-11T06:08:10.647Z,53.97
2023-05-11T06:10:40.230Z,54.68
2023-05-11T06:13:10.171Z,54.31
2023-05-11T06:15:43.404Z,54.31
2023-05-11T06:18:38.145Z,54.99
2023-05-11T06:21:08.081Z,54.35
2023-05-11T06:23:36.597Z,54.95
2023-05-11T06:26:04.546Z,54.57
2023-05-11T06:28:33.931Z,54.77
2023-05-11T06:31:06.856Z,54.69
2023-05-11T06:33:37.207Z,54.32
2023-05-11T06:36:10.862Z,54.13
2023-05-11T06:38:38.976Z,54.09
2023-05-11T06:41:11.238Z,54.38
2023-05-11T06:43:39.192Z,53.70
2023-05-11T06:46:20.240Z,53.84
2023-05-11T06:48:48.155Z,53.57
2023-05-11T06:51:16.202Z,53.16
2023-05-11T06:53:45.433Z,52.50
2023-05-11T06:56:13.222Z,52.56
2023-05-11T06:58:42.645Z,52.46
2023-05-11T07:01:11.963Z,52.26
2023-05-11T07:03:41.411Z,52.47
2023-05-11T07:06:09.446Z,52.08
2023-05-11T07:08:37.310Z,52.12
2023-05-11T07:11:05.168Z,52.10
2023-05-11T07:13:32.965Z,51.79
2023-05-11T07:16:00.821Z,51.80
2023-05-11T07:18:28.765Z,51.59
2023-05-11T07:20:57.998Z,51.57
2023-05-11T07:23:25.835Z,51.28
2023-05-11T07:25:57.356Z,51.66
2023-05-11T07:28:25.309Z,51.89
2023-05-11T07:30:53.112Z,51.87
2023-05-11T07:33:21.011Z,51.69
2023-05-11T07:35:48.797Z,51.15
2023-05-11T07:38:18.346Z,51.01
2023-05-11T07:40:46.253Z,51.62
2023-05-11T07:43:14.312Z,51.04
2023-05-11T07:45:42.086Z,51.54
2023-05-11T07:48:10.230Z,51.14
2023-05-11T07:50:38.093Z,51.37
2023-05-11T07:53:05.876Z,51.16
2023-05-11T07:55:35.185Z,51.59
2023-05-11T07:58:03.441Z,51.72
2023-05-11T08:00:31.376Z,51.70
2023-05-11T08:02:59.516Z,50.89
2023-05-11T08:05:27.649Z,50.68
2023-05-11T08:07:55.506Z,50.50
2023-05-11T08:10:23.341Z,50.74
2023-05-11T08:12:52.596Z,50.76
2023-05-11T08:15:21.172Z,50.25
2023-05-11T08:17:49.195Z,50.46
2023-05-11T08:20:17.132Z,50.58
2023-05-11T08:22:45.668Z,50.76
2023-05-11T08:25:13.909Z,50.88
2023-05-11T08:27:41.706Z,50.28
2023-05-11T08:30:12.287Z,50.64
2023-05-11T08:35:11.413Z,50.87
2023-05-11T08:37:39.284Z,50.84
2023-05-11T08:40:08.527Z,50.74
2023-05-11T08:42:38.594Z,50.27
2023-05-11T08:45:08.139Z,50.29
2023-05-11T08:47:37.994Z,50.78
2023-05-11T08:50:06.651Z,50.21
2023-05-11T08:52:34.664Z,50.26
2023-05-11T08:55:02.510Z,50.03
2023-05-11T08:57:32.889Z,50.34
2023-05-11T09:00:06.177Z,50.01
2023-05-11T09:02:35.801Z,49.98
2023-05-11T09:05:05.714Z,50.19
2023-05-11T09:07:37.780Z,49.73
2023-05-11T09:10:06.729Z,49.88
2023-05-11T09:12:34.590Z,49.86
2023-05-11T09:15:02.800Z,49.93
2023-05-11T09:17:30.893Z,49.95
2023-05-11T09:20:01.166Z,49.74
2023-05-11T09:22:35.462Z,49.44
2023-05-11T09:25:05.198Z,49.83
2023-05-11T09:27:33.186Z,49.54
2023-05-11T09:30:12.291Z,49.48
2023-05-11T09:32:49.708Z,49.23
2023-05-11T09:35:22.422Z,48.82
2023-05-11T09:38:06.040Z,49.07
2023-05-11T09:40:36.228Z,49.46
2023-05-11T09:43:04.513Z,49.15
2023-05-11T09:45:42.182Z,49.30
2023-05-11T09:48:25.163Z,48.75
2023-05-11T09:50:59.332Z,49.38
2023-05-11T09:53:37.736Z,48.97
2023-05-11T09:56:06.248Z,49.61
2023-05-11T09:58:49.980Z,49.40
2023-05-11T10:01:19.371Z,49.86
2023-05-11T10:03:49.167Z,49.42
2023-05-11T10:06:19.895Z,49.84
2023-05-11T10:08:50.086Z,49.81
2023-05-11T10:11:17.883Z,49.37
2023-05-11T10:13:46.592Z,49.72
2023-05-11T10:16:17.116Z,49.47
2023-05-11T10:18:46.870Z,49.75
2023-05-11T10:21:17.769Z,49.28
2023-05-11T10:23:46.184Z,49.84
2023-05-11T10:26:16.124Z,50.12
2023-05-11T10:28:44.406Z,49.75
2023-05-11T10:31:13.008Z,49.46
2023-05-11T10:33:42.852Z,49.61
2023-05-11T10:36:12.494Z,50.03
2023-05-11T10:38:40.487Z,50.04
2023-05-11T10:41:26.739Z,49.35
2023-05-11T10:44:20.294Z,49.56
2023-05-11T10:47:13.257Z,49.46
2023-05-11T10:49:56.144Z,49.92
2023-05-11T10:52:44.133Z,49.19
2023-05-11T10:55:20.960Z,49.00
2023-05-11T10:58:09.589Z,48.45
2023-05-11T11:01:19.784Z,48.10
2023-05-11T11:03:58.371Z,47.98
2023-05-11T11:06:29.356Z,49.09
2023-05-11T11:08:58.976Z,48.67
2023-05-11T11:11:30.760Z,48.01
2023-05-11T11:14:02.895Z,48.26
2023-05-11T11:16:31.501Z,48.51
2023-05-11T11:19:41.789Z,46.89
2023-05-11T11:22:43.168Z,46.94
2023-05-11T11:25:12.120Z,47.51
2023-05-11T11:27:59.324Z,46.02
2023-05-11T11:30:30.977Z,47.03
2023-05-11T11:33:32.880Z,46.06
2023-05-11T11:36:00.907Z,47.54
2023-05-11T11:38:29.573Z,47.28
2023-05-11T11:40:57.744Z,47.14
2023-05-11T11:43:28.438Z,46.20
2023-05-11T11:45:59.538Z,46.08
2023-05-11T11:48:33.692Z,45.80
2023-05-11T11:51:04.133Z,45.73
2023-05-11T11:54:06.418Z,45.36
2023-05-11T11:56:42.153Z,45.23
2023-05-11T11:59:14.020Z,45.97
2023-05-11T12:01:44.976Z,45.42
2023-05-11T12:04:40.946Z,44.66
2023-05-11T12:07:11.439Z,45.66
2023-05-11T12:09:40.940Z,45.65
2023-05-11T12:12:10.065Z,45.69
2023-05-11T12:14:37.969Z,45.75
2023-05-11T12:17:15.918Z,45.38
2023-05-11T12:19:45.617Z,45.85
2023-05-11T12:22:14.725Z,45.75
2023-05-11T12:24:43.941Z,45.37
2023-05-11T12:27:12.056Z,45.33
2023-05-11T12:29:41.354Z,45.05
2023-05-11T12:32:14.441Z,44.64
2023-05-11T12:34:42.343Z,45.19
2023-05-11T12:37:10.237Z,44.91
2023-05-11T12:39:39.576Z,44.98
2023-05-11T12:42:07.790Z,45.09
2023-05-11T12:44:36.326Z,44.54
2023-05-11T12:47:04.915Z,44.48
2023-05-11T12:49:34.388Z,44.72
2023-05-11T12:52:07.862Z,44.61
2023-05-11T12:54:38.088Z,44.44
2023-05-11T12:57:07.533Z,44.65
2023-05-11T12:59:37.483Z,44.30
2023-05-11T13:02:10.645Z,43.93
2023-05-11T13:04:41.464Z,44.01
2023-05-11T13:07:10.002Z,44.32
2023-05-11T13:09:38.575Z,44.00
2023-05-11T13:12:11.999Z,43.53
2023-05-11T13:14:40.461Z,43.52
2023-05-11T13:17:08.413Z,43.63
2023-05-11T13:19:37.605Z,44.10
2023-05-11T13:22:08.186Z,44.09
2023-05-11T13:24:36.084Z,44.35
2023-05-11T13:27:03.883Z,44.02
2023-05-11T13:29:31.718Z,43.94
2023-05-11T13:31:59.610Z,43.77
2023-05-11T13:34:27.577Z,44.06
2023-05-11T13:36:55.546Z,44.20
2023-05-11T13:39:24.790Z,43.63
2023-05-11T13:41:54.992Z,43.51
2023-05-11T13:44:23.686Z,43.62
2023-05-11T13:46:51.561Z,43.53
2023-05-11T13:49:19.978Z,44.02
2023-05-11T13:51:48.020Z,43.82
2023-05-11T13:54:15.969Z,43.69
2023-05-11T13:56:45.146Z,43.77
2023-05-11T13:59:13.146Z,43.63
2023-05-11T14:01:41.944Z,43.57
2023-05-11T14:04:09.817Z,43.87
2023-05-11T14:06:37.816Z,43.49
2023-05-11T14:09:05.941Z,43.45
2023-05-11T14:11:33.883Z,43.34
2023-05-11T14:14:03.223Z,43.03
2023-05-11T14:16:31.415Z,43.23
2023-05-11T14:18:59.284Z,43.19
2023-05-11T14:21:27.806Z,43.00
2023-05-11T14:24:10.530Z,42.67
2023-05-11T14:26:40.005Z,42.67
2023-05-11T14:29:09.243Z,42.71
2023-05-11T14:31:37.793Z,42.58
2023-05-11T14:34:06.262Z,42.44
2023-05-11T14:36:34.429Z,42.25
2023-05-11T14:39:02.717Z,42.70
2023-05-11T14:41:30.922Z,42.52
2023-05-11T14:43:58.688Z,42.31
2023-05-11T14:46:28.046Z,41.99
2023-05-11T14:48:55.916Z,42.12
2023-05-11T14:51:23.756Z,42.19
2023-05-11T14:53:52.184Z,42.51
2023-05-11T14:56:20.474Z,43.08
2023-05-11T14:58:48.290Z,43.13
2023-05-11T15:01:16.532Z,43.62
2023-05-11T15:03:46.007Z,43.63
2023-05-11T15:06:20.921Z,43.52
2023-05-11T15:08:49.269Z,43.91
2023-05-11T15:11:17.357Z,43.97
2023-05-11T15:13:47.390Z,44.58
2023-05-11T15:16:15.596Z,44.62
2023-05-11T15:18:44.839Z,45.23
2023-05-11T15:21:12.649Z,45.28
2023-05-11T15:23:40.764Z,45.28
2023-05-11T15:26:08.650Z,45.70
2023-05-11T15:28:36.502Z,45.96
2023-05-11T15:31:04.378Z,46.00
2023-05-11T15:33:32.831Z,46.38
2023-05-11T15:36:01.996Z,47.13
2023-05-11T15:38:30.982Z,46.98
2023-05-11T15:40:59.756Z,47.36
2023-05-11T15:43:27.537Z,47.34
2023-05-11T15:45:55.490Z,47.64
2023-05-11T15:48:23.521Z,47.30
2023-05-11T15:50:51.372Z,47.57
2023-05-11T15:53:20.689Z,47.38
2023-05-11T15:55:50.980Z,47.21
2023-05-11T15:58:19.067Z,47.07
2023-05-11T16:00:46.892Z,47.65
2023-05-11T16:03:15.002Z,47.49
2023-05-11T16:05:42.792Z,47.89
2023-05-11T16:08:10.770Z,48.55
2023-05-11T16:10:40.157Z,49.02
2023-05-11T16:13:09.393Z,48.80
2023-05-11T16:15:37.461Z,49.05
2023-05-11T16:18:05.774Z,48.92
2023-05-11T16:20:33.737Z,49.31
2023-05-11T16:23:01.682Z,49.51
2023-05-11T16:25:30.149Z,49.74
2023-05-11T16:27:59.678Z,49.78
2023-05-11T16:30:27.776Z,49.30
2023-05-11T16:32:55.946Z,49.39
2023-05-11T16:35:23.773Z,49.70
2023-05-11T16:37:51.796Z,49.59
2023-05-11T16:40:21.407Z,49.41
2023-05-11T16:42:49.698Z,49.51
2023-05-11T16:45:19.158Z,49.74
2023-05-11T16:47:47.156Z,49.14
2023-05-11T16:50:16.140Z,49.24
2023-05-11T16:52:44.609Z,49.55
2023-05-11T16:55:12.635Z,49.19
2023-05-11T16:57:40.493Z,49.78
2023-05-11T17:00:10.056Z,49.88
2023-05-11T17:02:39.791Z,50.33
2023-05-11T17:05:08.858Z,50.62
2023-05-11T17:07:36.738Z,50.42
2023-05-11T17:10:05.120Z,50.63
2023-05-11T17:12:35.576Z,50.91
2023-05-11T17:15:03.656Z,51.28
2023-05-11T17:17:31.476Z,51.16
2023-05-11T17:20:01.246Z,51.09
2023-05-11T17:22:29.730Z,51.63
2023-05-11T17:24:57.645Z,51.19
2023-05-11T17:27:26.010Z,51.64
2023-05-11T17:29:53.801Z,51.65
2023-05-11T17:32:21.832Z,51.59
2023-05-11T17:34:49.868Z,51.45
2023-05-11T17:37:30.490Z,52.02
2023-05-11T17:39:59.462Z,51.49
2023-05-11T17:42:27.383Z,52.03
2023-05-11T17:44:55.833Z,51.57
2023-05-11T17:47:24.094Z,52.22
2023-05-11T17:49:52.303Z,51.92
2023-05-11T17:52:21.583Z,52.26
2023-05-11T17:54:49.407Z,52.03
2023-05-11T17:57:17.261Z,51.75
2023-05-11T17:59:47.184Z,52.34
2023-05-11T18:02:15.096Z,51.75
2023-05-11T18:04:42.897Z,52.16
2023-05-11T18:07:10.722Z,51.80
2023-05-11T18:09:39.915Z,51.96
2023-05-11T18:12:09.502Z,52.27
2023-05-11T18:14:37.500Z,51.71
2023-05-11T18:17:05.634Z,51.89
2023-05-11T18:19:33.694Z,52.13
2023-05-11T18:22:01.581Z,52.21
2023-05-11T18:24:29.331Z,52.26
2023-05-11T18:26:58.622Z,52.16
2023-05-11T18:29:26.886Z,52.51
2023-05-11T18:31:54.757Z,52.70
2023-05-11T18:34:22.723Z,52.31
2023-05-11T18:36:50.800Z,52.65
2023-05-11T18:39:19.300Z,52.63
2023-05-11T18:41:47.245Z,52.67
2023-05-11T18:44:18.352Z,52.88
2023-05-11T18:46:46.383Z,52.40
2023-05-11T18:49:14.252Z,52.61
2023-05-11T18:51:42.306Z,52.44
2023-05-11T18:54:10.150Z,52.21
2023-05-11T18:56:38.058Z,52.80
2023-05-11T18:59:05.922Z,52.96
2023-05-11T19:01:47.099Z,52.75
2023-05-11T19:04:19.508Z,52.68
2023-05-11T19:06:47.542Z,52.45
2023-05-11T19:09:15.412Z,53.12
2023-05-11T19:11:43.791Z,52.57
2023-05-11T19:14:14.403Z,52.86
2023-05-11T19:16:43.875Z,53.11
2023-05-11T19:19:12.712Z,52.68
2023-05-11T19:21:42.431Z,53.16
2023-05-11T19:24:11.390Z,52.97
2023-05-11T19:26:40.396Z,53.27
2023-05-11T19:29:09.282Z,53.30
2023-05-11T19:31:37.439Z,52.87
2023-05-11T19:34:07.060Z,53.12
2023-05-11T19:36:34.956Z,52.89
2023-05-11T19:39:04.278Z,53.25
2023-05-11T19:41:33.233Z,53.19
2023-05-11T19:44:01.596Z,53.32
2023-05-11T19:46:29.696Z,53.09
2023-05-11T19:48:57.707Z,53.08
2023-05-11T19:51:26.891Z,53.23
2023-05-11T19:53:54.867Z,53.09
2023-05-11T19:56:22.747Z,53.59
2023-05-11T19:58:50.653Z,53.13
2023-05-11T20:01:18.578Z,53.24
2023-05-11T20:03:46.589Z,53.47
2023-05-11T20:06:14.486Z,53.30
2023-05-11T20:08:44.450Z,53.71
2023-05-11T20:11:13.734Z,53.92
2023-05-11T20:13:42.482Z,53.46
2023-05-11T20:16:10.759Z,53.43
2023-05-11T20:18:38.698Z,53.87
2023-05-11T20:21:06.988Z,53.64
2023-05-11T20:23:37.190Z,53.55
2023-05-11T20:26:09.839Z,54.00
2023-05-11T20:28:39.460Z,53.90
2023-05-11T20:31:09.464Z,53.97
2023-05-11T20:36:09.418Z,53.96
2023-05-11T20:38:37.268Z,53.61
2023-05-11T20:41:05.199Z,53.63
2023-05-11T20:43:34.386Z,53.93
2023-05-11T20:46:03.390Z,53.88
2023-05-11T20:48:40.046Z,53.69
2023-05-11T20:51:09.246Z,54.21
2023-05-11T20:53:37.009Z,54.09
2023-05-11T20:56:05.014Z,54.36
2023-05-11T20:58:34.220Z,53.74
2023-05-11T21:01:02.142Z,54.00
2023-05-11T21:03:30.153Z,54.11
2023-05-11T21:05:58.025Z,53.95
2023-05-11T21:08:25.866Z,54.14
2023-05-11T21:10:53.773Z,54.27
2023-05-11T21:13:21.571Z,54.21
2023-05-11T21:15:50.830Z,54.06
2023-05-11T21:18:18.972Z,54.57
2023-05-11T21:20:47.263Z,54.08
2023-05-11T21:23:15.256Z,54.38
2023-05-11T21:25:43.165Z,54.46
2023-05-11T21:28:11.179Z,54.63
2023-05-11T21:30:39.274Z,54.20
2023-05-11T21:33:08.619Z,54.65
2023-05-11T21:35:36.844Z,54.71
2023-05-11T21:38:04.664Z,54.78
2023-05-11T21:40:32.574Z,54.64
2023-05-11T21:43:00.324Z,54.57
2023-05-11T21:45:28.090Z,54.44
2023-05-11T21:47:55.923Z,54.78
2023-05-11T21:50:25.245Z,54.37
2023-05-11T21:52:53.007Z,54.66
2023-05-11T21:55:20.947Z,54.36
2023-05-11T21:57:49.153Z,54.91
2023-05-11T22:00:19.301Z,54.69
2023-05-11T22:02:47.448Z,54.47
2023-05-11T22:05:15.517Z,54.59
2023-05-11T22:07:44.934Z,54.77
2023-05-11T22:10:13.247Z,55.15
2023-05-11T22:12:41.093Z,54.88
2023-05-11T22:15:09.893Z,54.73
2023-05-11T22:17:38.105Z,55.21
2023-05-11T22:20:07.407Z,54.98
2023-05-11T22:22:36.636Z,54.92
2023-05-11T22:25:06.453Z,54.99
2023-05-11T22:27:34.241Z,54.70
2023-05-11T22:30:02.447Z,54.50
2023-05-11T22:32:31.522Z,54.79
2023-05-11T22:35:00.240Z,54.93
2023-05-11T22:37:28.675Z,54.48
2023-05-11T22:39:56.549Z,54.44
2023-05-11T22:42:25.911Z,54.82
2023-05-11T22:44:53.758Z,54.30
2023-05-11T22:47:21.502Z,54.86
2023-05-11T22:49:49.266Z,54.53
2023-05-11T22:52:17.527Z,55.06
2023-05-11T22:54:45.308Z,54.71
2023-05-11T22:57:14.769Z,54.48
2023-05-11T22:59:46.606Z,54.80
2023-05-11T23:02:14.532Z,55.28
2023-05-11T23:04:42.442Z,54.88
2023-05-11T23:07:13.000Z,54.95
2023-05-11T23:09:40.903Z,55.07
2023-05-11T23:12:09.374Z,55.07
2023-05-11T23:14:37.378Z,55.21
2023-05-11T23:17:06.627Z,55.49
2023-05-11T23:19:35.049Z,55.47
2023-05-11T23:22:02.952Z,55.48
2023-05-11T23:24:31.129Z,55.29
2023-05-11T23:26:58.934Z,55.48
2023-05-11T23:29:27.128Z,55.06
2023-05-11T23:31:55.916Z,55.49
2023-05-11T23:34:25.116Z,55.18
2023-05-11T23:36:53.202Z,55.67
2023-05-11T23:39:24.171Z,55.58
2023-05-11T23:41:52.524Z,55.80
2023-05-11T23:44:20.461Z,55.53
2023-05-11T23:50:35.565Z,55.46
2023-05-11T23:54:11.183Z,56.14
